(°C)
(°C)
-3°
-2°
-3°
-3°
-3°
-2°
-3°
SV
SV
SV
SV
SV
SV
SV
(km/h)
24-48
24-47
23-45
22-43
20-41
19-39
17-36
(mm)
0
0
0
0
0
0
0
(%)
0
0
0
0
0
0
0

Elevația soarelui

/ 16.8°
sun-icon
UV 1
08:10
18:17
Al doilea pătrar (201°)
18:55
09:50

METAR pentru 55.03°N 82.6°E (UNNT)

Ora Condiții Temperatură/
Punctul de rouă
Vânt Vizibilitate Vremea Nori Presiune Schimbă Brut
VFR 5°C / -4°C 230º 14kt >10km - Overcast 4000ft 1016 No Significant change. Runway 25: Clear and dry, 51-100% contamination with <1mm, friction coefficient 0.70. Runway 16: deposit not reported, . UNNT 220830Z 23007MPS 9999 OVC040 05/M04 Q1016 R25/090070 R16/////// NOSIG RMK QFE752/1003
VFR 5°C / -4°C 220º 14kt Gust 23kt >10km - Overcast 4000ft 1016 No Significant change. Runway 25: Clear and dry, 51-100% contamination with <1mm, friction coefficient 0.70. Runway 16: deposit not reported, . UNNT 220800Z 22007G12MPS 9999 OVC040 05/M04 Q1016 R25/090070 R16/////// NOSIG RMK QFE752/1003
VFR 5°C / -4°C 240º 17kt >10km - Broken Clouds 3100ft 1016 No Significant change. Runway 25: Clear and dry, 51-100% contamination with <1mm, friction coefficient 0.70. Runway 16: deposit not reported, . UNNT 220730Z 24009MPS 9999 BKN031 05/M04 Q1016 R25/090070 R16/////// NOSIG RMK QFE752/1002
VFR 5°C / -3°C 240º 16kt Gust 27kt >10km - Broken Clouds 3100ft 1016 No Significant change. Runway 25: Clear and dry, 51-100% contamination with <1mm, friction coefficient 0.70. Runway 16: deposit not reported, . UNNT 220700Z 24008G14MPS 9999 BKN031 05/M03 Q1016 R25/090070 R16/////// NOSIG RMK QFE752/1002
VFR 5°C / -3°C 240º 14kt Gust 25kt >10km - Broken Clouds 3400ft 1015 No Significant change. Runway 25: Clear and dry, 51-100% contamination with <1mm, friction coefficient 0.70. Runway 16: deposit not reported, . UNNT 220630Z 24007G13MPS 9999 BKN034 05/M03 Q1015 R25/090070 R16/////// NOSIG RMK QFE752/1002
VFR 5°C / -2°C 240º 17kt >10km - Broken Clouds 3100ft 1015 No Significant change. Runway 25: Clear and dry, 51-100% contamination with <1mm, friction coefficient 0.70. Runway 16: deposit not reported, . UNNT 220600Z 24009MPS 9999 BKN031 05/M02 Q1015 R25/090070 R16/////// NOSIG RMK QFE751/1002
VFR 5°C / -2°C 240º 16kt >10km - Broken Clouds 3100ft 1015 No Significant change. Runway 25: Clear and dry, 51-100% contamination with <1mm, friction coefficient 0.70. Runway 16: deposit not reported, . UNNT 220530Z 24008MPS 9999 BKN031 05/M02 Q1015 R25/090070 R16/////// NOSIG RMK QFE751/1002
VFR 5°C / -2°C 240º 19kt >10km - Broken Clouds 3100ft 1014 No Significant change. Runway 25: Clear and dry, 51-100% contamination with <1mm, friction coefficient 0.70. Runway 16: deposit not reported, . UNNT 220500Z 24010MPS 9999 BKN031 05/M02 Q1014 R25/090070 R16/////// NOSIG RMK QFE751/1001
VFR 5°C / -2°C 240º 19kt Gust 29kt >10km - Broken Clouds 3400ft 1014 No Significant change. Runway 25: Clear and dry, 51-100% contamination with <1mm, friction coefficient 0.70. Runway 16: deposit not reported, . UNNT 220430Z 24010G15MPS 9999 BKN034 05/M02 Q1014 R25/090070 R16/////// NOSIG RMK QFE750/1000
MVFR 5°C / 0°C 230º 16kt >10km - Broken Clouds 2400ft 1013 No Significant change. Runway 25: Clear and dry, 51-100% contamination with <1mm, friction coefficient 0.70. Runway 16: deposit not reported, . UNNT 220400Z 23008MPS 9999 BKN024 05/00 Q1013 R25/090070 R16/////// NOSIG RMK QFE750/1000
VFR 5°C / 1°C 230º 17kt Gust 27kt. Wind Shear present on Runway 25. >10km - Scattered Clouds 1800ft 1013 No Significant change. Runway 25: Clear and dry, 51-100% contamination with <1mm, friction coefficient 0.70. Runway 16: deposit not reported, . UNNT 220330Z 23009G14MPS 9999 SCT018 05/01 Q1013 WS R25 R25/090070 R16/////// NOSIG RMK QFE749/0999
MVFR 5°C / 1°C 230º 14kt >10km - Broken Clouds 1700ft 1012 No Significant change. Runway 25: Clear and dry, 51-100% contamination with <1mm, friction coefficient 0.70. Runway 16: deposit not reported, . UNNT 220300Z 23007MPS 9999 BKN017 05/01 Q1012 R25/090070 R16/////// NOSIG RMK QFE749/0999
MVFR 5°C / 1°C 260º 16kt >10km - Broken Clouds 2800ft 1012 No Significant change. Runway 25: Clear and dry, 51-100% contamination with <1mm, friction coefficient 0.70. Runway 16: deposit not reported, . UNNT 220230Z 26008MPS 9999 BKN028 05/01 Q1012 R25/090070 R16/////// NOSIG RMK QFE749/0999
VFR 6°C / 1°C 250º 17kt >10km - Broken Clouds 3400ft 1011 No Significant change. Runway 25: Clear and dry, 51-100% contamination with <1mm, friction coefficient 0.70. Runway 16: deposit not reported, . UNNT 220200Z 25009MPS 9999 BKN034 06/01 Q1011 R25/090070 R16/////// NOSIG RMK QFE748/0998
VFR 7°C / 1°C 250º 14kt >10km - Clouds and Visibility OK 1010 No Significant change. Runway 25: Clear and dry, 51-100% contamination with <1mm, friction coefficient 0.70. Runway 16: Clear and dry, 51-100% contamination with <1mm, friction coefficient 0.70. UNNT 220130Z 25007MPS CAVOK 07/01 Q1010 R25/090070 R16/090070 NOSIG RMK QFE747/0996
VFR 7°C / 2°C 250º 14kt >10km - Clouds and Visibility OK 1009 No Significant change. Runway 25: Clear and dry, 51-100% contamination with <1mm, friction coefficient 0.70. Runway 16: Clear and dry, 51-100% contamination with <1mm, friction coefficient 0.70. UNNT 220100Z 25007MPS CAVOK 07/02 Q1009 R25/090070 R16/090070 NOSIG RMK QFE747/0996
VFR 8°C / 1°C 250º 10kt >10km - Clouds and Visibility OK 1009 No Significant change. Runway 25: Clear and dry, 51-100% contamination with <1mm, friction coefficient 0.70. Runway 16: Clear and dry, 51-100% contamination with <1mm, friction coefficient 0.70. UNNT 220030Z 25005MPS CAVOK 08/01 Q1009 R25/090070 R16/090070 NOSIG RMK QFE746/0995
VFR 7°C / 0°C 230º 8kt Gust 19kt >10km - Clouds and Visibility OK 1008 No Significant change. Runway 25: Clear and dry, 51-100% contamination with <1mm, friction coefficient 0.70. Runway 16: Clear and dry, 51-100% contamination with <1mm, friction coefficient 0.70. UNNT 220000Z 23004G10MPS CAVOK 07/00 Q1008 R25/090070 R16/090070 NOSIG RMK QFE746/0995
VFR 7°C / 0°C 190º variable 150º to 220º 6kt >10km - Clouds and Visibility OK 1007 No Significant change. Runway 07: Clear and dry, 51-100% contamination with <1mm, friction coefficient 0.70. Runway 16: Clear and dry, 51-100% contamination with <1mm, friction coefficient 0.70. UNNT 212330Z 19003MPS 150V220 CAVOK 07/M00 Q1007 R07/090070 R16/090070 NOSIG RMK QFE746/0994
VFR 7°C / 0°C 180º 4kt >10km - Clouds and Visibility OK 1008 No Significant change. Runway 25: Clear and dry, 51-100% contamination with <1mm, friction coefficient 0.70. Runway 16: Clear and dry, 51-100% contamination with <1mm, friction coefficient 0.70. UNNT 212300Z 18002MPS CAVOK 07/00 Q1008 R25/090070 R16/090070 NOSIG RMK QFE746/0994
VFR 6°C / 0°C 170º 6kt >10km - Clouds and Visibility OK 1008 No Significant change. Runway 25: Clear and dry, 51-100% contamination with <1mm, friction coefficient 0.70. Runway 16: Clear and dry, 51-100% contamination with <1mm, friction coefficient 0.70. UNNT 212230Z 17003MPS CAVOK 06/M00 Q1008 R25/090070 R16/090070 NOSIG RMK QFE746/0995
VFR 6°C / 0°C 160º variable 100º to 180º 8kt >10km - Clouds and Visibility OK 1007 No Significant change. Runway 25: Clear and dry, 51-100% contamination with <1mm, friction coefficient 0.70. Runway 16: Clear and dry, 51-100% contamination with <1mm, friction coefficient 0.70. UNNT 212200Z 16004MPS 100V180 CAVOK 06/M00 Q1007 R25/090070 R16/090070 NOSIG RMK QFE746/0994
VFR 7°C / -1°C 150º 8kt >10km - Clouds and Visibility OK 1007 No Significant change. Runway 25: Clear and dry, 51-100% contamination with <1mm, friction coefficient 0.70. Runway 16: Clear and dry, 51-100% contamination with <1mm, friction coefficient 0.70. UNNT 212130Z 15004MPS CAVOK 07/M01 Q1007 R25/090070 R16/090070 NOSIG RMK QFE746/0994
VFR 6°C / 0°C 150º 8kt >10km - Clouds and Visibility OK 1008 No Significant change. Runway 07: Clear and dry, 51-100% contamination with <1mm, friction coefficient 0.70. Runway 16: Clear and dry, 51-100% contamination with <1mm, friction coefficient 0.70. UNNT 212100Z 15004MPS CAVOK 06/M00 Q1008 R07/090070 R16/090070 NOSIG RMK QFE746/0995

VFR

5°C / -4°C

[Mai mult]
Vânt 230º 14kt
Vizibilitate >10km
Vremea -
Nori Overcast 4000ft
Presiune 1016
Schimbă No Significant change. Runway 25: Clear and dry, 51-100% contamination with <1mm, friction coefficient 0.70. Runway 16: deposit not reported, .
Brut UNNT 220830Z 23007MPS 9999 OVC040 05/M04 Q1016 R25/090070 R16/////// NOSIG RMK QFE752/1003

VFR

5°C / -4°C

[Mai mult]
Vânt 220º 14kt Gust 23kt
Vizibilitate >10km
Vremea -
Nori Overcast 4000ft
Presiune 1016
Schimbă No Significant change. Runway 25: Clear and dry, 51-100% contamination with <1mm, friction coefficient 0.70. Runway 16: deposit not reported, .
Brut UNNT 220800Z 22007G12MPS 9999 OVC040 05/M04 Q1016 R25/090070 R16/////// NOSIG RMK QFE752/1003

VFR

5°C / -4°C

[Mai mult]
Vânt 240º 17kt
Vizibilitate >10km
Vremea -
Nori Broken Clouds 3100ft
Presiune 1016
Schimbă No Significant change. Runway 25: Clear and dry, 51-100% contamination with <1mm, friction coefficient 0.70. Runway 16: deposit not reported, .
Brut UNNT 220730Z 24009MPS 9999 BKN031 05/M04 Q1016 R25/090070 R16/////// NOSIG RMK QFE752/1002

VFR

5°C / -3°C

[Mai mult]
Vânt 240º 16kt Gust 27kt
Vizibilitate >10km
Vremea -
Nori Broken Clouds 3100ft
Presiune 1016
Schimbă No Significant change. Runway 25: Clear and dry, 51-100% contamination with <1mm, friction coefficient 0.70. Runway 16: deposit not reported, .
Brut UNNT 220700Z 24008G14MPS 9999 BKN031 05/M03 Q1016 R25/090070 R16/////// NOSIG RMK QFE752/1002

VFR

5°C / -3°C

[Mai mult]
Vânt 240º 14kt Gust 25kt
Vizibilitate >10km
Vremea -
Nori Broken Clouds 3400ft
Presiune 1015
Schimbă No Significant change. Runway 25: Clear and dry, 51-100% contamination with <1mm, friction coefficient 0.70. Runway 16: deposit not reported, .
Brut UNNT 220630Z 24007G13MPS 9999 BKN034 05/M03 Q1015 R25/090070 R16/////// NOSIG RMK QFE752/1002

VFR

5°C / -2°C

[Mai mult]
Vânt 240º 17kt
Vizibilitate >10km
Vremea -
Nori Broken Clouds 3100ft
Presiune 1015
Schimbă No Significant change. Runway 25: Clear and dry, 51-100% contamination with <1mm, friction coefficient 0.70. Runway 16: deposit not reported, .
Brut UNNT 220600Z 24009MPS 9999 BKN031 05/M02 Q1015 R25/090070 R16/////// NOSIG RMK QFE751/1002

VFR

5°C / -2°C

[Mai mult]
Vânt 240º 16kt
Vizibilitate >10km
Vremea -
Nori Broken Clouds 3100ft
Presiune 1015
Schimbă No Significant change. Runway 25: Clear and dry, 51-100% contamination with <1mm, friction coefficient 0.70. Runway 16: deposit not reported, .
Brut UNNT 220530Z 24008MPS 9999 BKN031 05/M02 Q1015 R25/090070 R16/////// NOSIG RMK QFE751/1002

VFR

5°C / -2°C

[Mai mult]
Vânt 240º 19kt
Vizibilitate >10km
Vremea -
Nori Broken Clouds 3100ft
Presiune 1014
Schimbă No Significant change. Runway 25: Clear and dry, 51-100% contamination with <1mm, friction coefficient 0.70. Runway 16: deposit not reported, .
Brut UNNT 220500Z 24010MPS 9999 BKN031 05/M02 Q1014 R25/090070 R16/////// NOSIG RMK QFE751/1001

VFR

5°C / -2°C

[Mai mult]
Vânt 240º 19kt Gust 29kt
Vizibilitate >10km
Vremea -
Nori Broken Clouds 3400ft
Presiune 1014
Schimbă No Significant change. Runway 25: Clear and dry, 51-100% contamination with <1mm, friction coefficient 0.70. Runway 16: deposit not reported, .
Brut UNNT 220430Z 24010G15MPS 9999 BKN034 05/M02 Q1014 R25/090070 R16/////// NOSIG RMK QFE750/1000

MVFR

5°C / 0°C

[Mai mult]
Vânt 230º 16kt
Vizibilitate >10km
Vremea -
Nori Broken Clouds 2400ft
Presiune 1013
Schimbă No Significant change. Runway 25: Clear and dry, 51-100% contamination with <1mm, friction coefficient 0.70. Runway 16: deposit not reported, .
Brut UNNT 220400Z 23008MPS 9999 BKN024 05/00 Q1013 R25/090070 R16/////// NOSIG RMK QFE750/1000

VFR

5°C / 1°C

[Mai mult]
Vânt 230º 17kt Gust 27kt. Wind Shear present on Runway 25.
Vizibilitate >10km
Vremea -
Nori Scattered Clouds 1800ft
Presiune 1013
Schimbă No Significant change. Runway 25: Clear and dry, 51-100% contamination with <1mm, friction coefficient 0.70. Runway 16: deposit not reported, .
Brut UNNT 220330Z 23009G14MPS 9999 SCT018 05/01 Q1013 WS R25 R25/090070 R16/////// NOSIG RMK QFE749/0999

MVFR

5°C / 1°C

[Mai mult]
Vânt 230º 14kt
Vizibilitate >10km
Vremea -
Nori Broken Clouds 1700ft
Presiune 1012
Schimbă No Significant change. Runway 25: Clear and dry, 51-100% contamination with <1mm, friction coefficient 0.70. Runway 16: deposit not reported, .
Brut UNNT 220300Z 23007MPS 9999 BKN017 05/01 Q1012 R25/090070 R16/////// NOSIG RMK QFE749/0999

MVFR

5°C / 1°C

[Mai mult]
Vânt 260º 16kt
Vizibilitate >10km
Vremea -
Nori Broken Clouds 2800ft
Presiune 1012
Schimbă No Significant change. Runway 25: Clear and dry, 51-100% contamination with <1mm, friction coefficient 0.70. Runway 16: deposit not reported, .
Brut UNNT 220230Z 26008MPS 9999 BKN028 05/01 Q1012 R25/090070 R16/////// NOSIG RMK QFE749/0999

VFR

6°C / 1°C

[Mai mult]
Vânt 250º 17kt
Vizibilitate >10km
Vremea -
Nori Broken Clouds 3400ft
Presiune 1011
Schimbă No Significant change. Runway 25: Clear and dry, 51-100% contamination with <1mm, friction coefficient 0.70. Runway 16: deposit not reported, .
Brut UNNT 220200Z 25009MPS 9999 BKN034 06/01 Q1011 R25/090070 R16/////// NOSIG RMK QFE748/0998

VFR

7°C / 1°C

[Mai mult]
Vânt 250º 14kt
Vizibilitate >10km
Vremea -
Nori Clouds and Visibility OK
Presiune 1010
Schimbă No Significant change. Runway 25: Clear and dry, 51-100% contamination with <1mm, friction coefficient 0.70. Runway 16: Clear and dry, 51-100% contamination with <1mm, friction coefficient 0.70.
Brut UNNT 220130Z 25007MPS CAVOK 07/01 Q1010 R25/090070 R16/090070 NOSIG RMK QFE747/0996

VFR

7°C / 2°C

[Mai mult]
Vânt 250º 14kt
Vizibilitate >10km
Vremea -
Nori Clouds and Visibility OK
Presiune 1009
Schimbă No Significant change. Runway 25: Clear and dry, 51-100% contamination with <1mm, friction coefficient 0.70. Runway 16: Clear and dry, 51-100% contamination with <1mm, friction coefficient 0.70.
Brut UNNT 220100Z 25007MPS CAVOK 07/02 Q1009 R25/090070 R16/090070 NOSIG RMK QFE747/0996

VFR

8°C / 1°C

[Mai mult]
Vânt 250º 10kt
Vizibilitate >10km
Vremea -
Nori Clouds and Visibility OK
Presiune 1009
Schimbă No Significant change. Runway 25: Clear and dry, 51-100% contamination with <1mm, friction coefficient 0.70. Runway 16: Clear and dry, 51-100% contamination with <1mm, friction coefficient 0.70.
Brut UNNT 220030Z 25005MPS CAVOK 08/01 Q1009 R25/090070 R16/090070 NOSIG RMK QFE746/0995

VFR

7°C / 0°C

[Mai mult]
Vânt 230º 8kt Gust 19kt
Vizibilitate >10km
Vremea -
Nori Clouds and Visibility OK
Presiune 1008
Schimbă No Significant change. Runway 25: Clear and dry, 51-100% contamination with <1mm, friction coefficient 0.70. Runway 16: Clear and dry, 51-100% contamination with <1mm, friction coefficient 0.70.
Brut UNNT 220000Z 23004G10MPS CAVOK 07/00 Q1008 R25/090070 R16/090070 NOSIG RMK QFE746/0995

VFR

7°C / 0°C

[Mai mult]
Vânt 190º variable 150º to 220º 6kt
Vizibilitate >10km
Vremea -
Nori Clouds and Visibility OK
Presiune 1007
Schimbă No Significant change. Runway 07: Clear and dry, 51-100% contamination with <1mm, friction coefficient 0.70. Runway 16: Clear and dry, 51-100% contamination with <1mm, friction coefficient 0.70.
Brut UNNT 212330Z 19003MPS 150V220 CAVOK 07/M00 Q1007 R07/090070 R16/090070 NOSIG RMK QFE746/0994

VFR

7°C / 0°C

[Mai mult]
Vânt 180º 4kt
Vizibilitate >10km
Vremea -
Nori Clouds and Visibility OK
Presiune 1008
Schimbă No Significant change. Runway 25: Clear and dry, 51-100% contamination with <1mm, friction coefficient 0.70. Runway 16: Clear and dry, 51-100% contamination with <1mm, friction coefficient 0.70.
Brut UNNT 212300Z 18002MPS CAVOK 07/00 Q1008 R25/090070 R16/090070 NOSIG RMK QFE746/0994

VFR

6°C / 0°C

[Mai mult]
Vânt 170º 6kt
Vizibilitate >10km
Vremea -
Nori Clouds and Visibility OK
Presiune 1008
Schimbă No Significant change. Runway 25: Clear and dry, 51-100% contamination with <1mm, friction coefficient 0.70. Runway 16: Clear and dry, 51-100% contamination with <1mm, friction coefficient 0.70.
Brut UNNT 212230Z 17003MPS CAVOK 06/M00 Q1008 R25/090070 R16/090070 NOSIG RMK QFE746/0995

VFR

6°C / 0°C

[Mai mult]
Vânt 160º variable 100º to 180º 8kt
Vizibilitate >10km
Vremea -
Nori Clouds and Visibility OK
Presiune 1007
Schimbă No Significant change. Runway 25: Clear and dry, 51-100% contamination with <1mm, friction coefficient 0.70. Runway 16: Clear and dry, 51-100% contamination with <1mm, friction coefficient 0.70.
Brut UNNT 212200Z 16004MPS 100V180 CAVOK 06/M00 Q1007 R25/090070 R16/090070 NOSIG RMK QFE746/0994

VFR

7°C / -1°C

[Mai mult]
Vânt 150º 8kt
Vizibilitate >10km
Vremea -
Nori Clouds and Visibility OK
Presiune 1007
Schimbă No Significant change. Runway 25: Clear and dry, 51-100% contamination with <1mm, friction coefficient 0.70. Runway 16: Clear and dry, 51-100% contamination with <1mm, friction coefficient 0.70.
Brut UNNT 212130Z 15004MPS CAVOK 07/M01 Q1007 R25/090070 R16/090070 NOSIG RMK QFE746/0994

VFR

6°C / 0°C

[Mai mult]
Vânt 150º 8kt
Vizibilitate >10km
Vremea -
Nori Clouds and Visibility OK
Presiune 1008
Schimbă No Significant change. Runway 07: Clear and dry, 51-100% contamination with <1mm, friction coefficient 0.70. Runway 16: Clear and dry, 51-100% contamination with <1mm, friction coefficient 0.70.
Brut UNNT 212100Z 15004MPS CAVOK 06/M00 Q1008 R07/090070 R16/090070 NOSIG RMK QFE746/0995

TAF pentru 55.03°N 82.6°E (UNNT)

From till


From till Wind 230º 16kt. Gust 35kt. Visibility 10km or more. Broken Clouds 4000ft.
Temporarly from till Light Showers Rain . Broken Clouds 1600ft.
Becoming from till Wind 190º 12kt. Gust 29kt. Visibility 10km or more. Broken Clouds 4000ft.
Becoming from till Wind 190º 21kt. Gust 39kt. Visibility 10km or more. Broken Clouds 4000ft.
Temporarly from till Light Showers Rain . Broken Clouds 1600ft.

Brut: TAF UNNT 220800Z 2209/2309 23008G18MPS 9999 BKN040CB TEMPO 2209/2214 -SHRA BKN016CB BECMG 2214/2217 19006G15MPS BECMG 2302/2305 19011G20MPS TEMPO 2305/2309 -SHRA BKN016CB

Imagini satelitare și ploaie pentru 55.03°N 82.6°E

Markerul cu locaţia este poziţionat pe 55.03°N 82.6°E. [Mai mult]

Imaginea satelitară în timp real combină lumina vizibilă din timpul zilei cu radiația cu infraroșu din timpul nopții. Pe timp de noapte, imaginea nu este întunecată, deoarece radiația cu infraroșu poate detecta diferențele de temperatură. Din păcate, norii joși și ceața sunt greu de recunoscut față de temperatura de la sol, din această cauză putând fi invizibili pe timp de noapte. Imaginile satelitare Meteosat pentru Europa sunt actualizate în timp real din 5 în 5 minute. Imaginile GOES-16/GOES-17 (America de Nord și de Sud) și Himawari (Asia) sunt actualizate din 10 în 10 minute.

Toate drepturile rezervate 2021 EUMETSAT / meteoblue. / Toate drepturile rezervate 2021 meteoblue

Radar și nowcast de precipitații pentru 55.03°N 82.6°E

Burniță
Ușoară
Moderat
Greu
Foarte greu
Grindină

Markerul de locație este plasat în 55.03°N 82.6°E. Această animație arată radarul de precipitații pentru ultima oră, precum și o 1h prognoză. Ploaia sau ninsoarea slabă ar putea fi invizibilă pentru radar. Intensitatea precipitațiilor este codificată prin culori, de la albastru deschis la portocaliu.